LNFTT ENTO-ENNO
Flight info
| Callsign | LNFTT |
|---|---|
| Flight time | 0h 26m |
| Altitude | 2500 |
| Route | DCT TOR DCT VP036 DCT 592113N0091356E DCT 592959N0091837E DCT |
| Aircraft | DA42/L-G/C |
Departure
| Time | 2026-05-04 09:04 |
|---|---|
| Airport | Sandefjord Airport, Torp (ENTO) |
Arrival
| Time | 2026-05-04 09:30 |
|---|---|
| Airport | Notodden Airport (ENNO) |
| Time | Latitude | Longitude | Altitude | Speed | Heading |
|---|---|---|---|---|---|
| 2026-05-04 08:40 | 59.18571 | 10.25614 | 273 ft | 0 kts | 269° |
| 2026-05-04 08:50 | 59.18571 | 10.25613 | 273 ft | 0 kts | 269° |
| 2026-05-04 09:01 | 59.18508 | 10.25675 | 273 ft | 0 kts | 176° |
| 2026-05-04 09:01 | 59.18496 | 10.25687 | 273 ft | 5 kts | 134° |
| 2026-05-04 09:02 | 59.18497 | 10.25766 | 273 ft | 7 kts | 69° |
| 2026-05-04 09:02 | 59.18524 | 10.25856 | 273 ft | 8 kts | 30° |
| 2026-05-04 09:02 | 59.18556 | 10.25863 | 273 ft | 0 kts | 352° |
| 2026-05-04 09:03 | 59.18558 | 10.25863 | 273 ft | 3 kts | 354° |
| 2026-05-04 09:03 | 59.18730 | 10.25858 | 274 ft | 52 kts | 359° |
| 2026-05-04 09:03 | 59.19236 | 10.25864 | 365 ft | 82 kts | 356° |
| 2026-05-04 09:03 | 59.19845 | 10.25935 | 597 ft | 93 kts | 358° |
| 2026-05-04 09:04 | 59.20536 | 10.26000 | 857 ft | 103 kts | 358° |
| 2026-05-04 09:04 | 59.21235 | 10.25708 | 1095 ft | 111 kts | 320° |
| 2026-05-04 09:04 | 59.21709 | 10.24477 | 1381 ft | 115 kts | 302° |
| 2026-05-04 09:04 | 59.22150 | 10.23209 | 1731 ft | 111 kts | 303° |
| 2026-05-04 09:05 | 59.22643 | 10.22024 | 1982 ft | 114 kts | 307° |
| 2026-05-04 09:05 | 59.23138 | 10.20811 | 2355 ft | 111 kts | 307° |
| 2026-05-04 09:05 | 59.23625 | 10.19579 | 2462 ft | 122 kts | 306° |
| 2026-05-04 09:05 | 59.24160 | 10.18191 | 2477 ft | 135 kts | 306° |
| 2026-05-04 09:06 | 59.24740 | 10.16640 | 2472 ft | 146 kts | 305° |
| 2026-05-04 09:07 | 59.28305 | 10.06273 | 2471 ft | 119 kts | 277° |
| 2026-05-04 09:08 | 59.28194 | 10.04655 | 2477 ft | 123 kts | 261° |
| 2026-05-04 09:08 | 59.28013 | 10.02993 | 2508 ft | 128 kts | 258° |
| 2026-05-04 09:08 | 59.27660 | 10.01331 | 2463 ft | 134 kts | 245° |
| 2026-05-04 09:08 | 59.27198 | 9.99765 | 2478 ft | 133 kts | 244° |
| 2026-05-04 09:09 | 59.26734 | 9.98203 | 2465 ft | 136 kts | 245° |
| 2026-05-04 09:09 | 59.26337 | 9.96559 | 2470 ft | 130 kts | 260° |
| 2026-05-04 09:09 | 59.26224 | 9.94785 | 2452 ft | 136 kts | 269° |
| 2026-05-04 09:09 | 59.26160 | 9.92939 | 2504 ft | 136 kts | 271° |
| 2026-05-04 09:10 | 59.26098 | 9.91069 | 2454 ft | 138 kts | 266° |
| 2026-05-04 09:10 | 59.26006 | 9.89276 | 2470 ft | 128 kts | 269° |
| 2026-05-04 09:10 | 59.25939 | 9.87500 | 2448 ft | 134 kts | 269° |
| 2026-05-04 09:10 | 59.25879 | 9.85692 | 2471 ft | 134 kts | 269° |
| 2026-05-04 09:11 | 59.25823 | 9.83879 | 2463 ft | 133 kts | 270° |
| 2026-05-04 09:11 | 59.25760 | 9.82084 | 2458 ft | 131 kts | 269° |
| 2026-05-04 09:11 | 59.25707 | 9.80345 | 2461 ft | 130 kts | 269° |
| 2026-05-04 09:11 | 59.25648 | 9.78582 | 2460 ft | 131 kts | 268° |
| 2026-05-04 09:12 | 59.25599 | 9.76811 | 2488 ft | 132 kts | 270° |
| 2026-05-04 09:12 | 59.25546 | 9.74984 | 2455 ft | 133 kts | 269° |
| 2026-05-04 09:14 | 59.25143 | 9.62664 | 2452 ft | 131 kts | 269° |
| 2026-05-04 09:14 | 59.25084 | 9.60859 | 2460 ft | 136 kts | 270° |
| 2026-05-04 09:14 | 59.25035 | 9.59005 | 2454 ft | 135 kts | 270° |
| 2026-05-04 09:14 | 59.24941 | 9.57190 | 2490 ft | 133 kts | 269° |
| 2026-05-04 09:15 | 59.24840 | 9.55365 | 2466 ft | 135 kts | 270° |
| 2026-05-04 09:15 | 59.24747 | 9.53571 | 2473 ft | 129 kts | 269° |
| 2026-05-04 09:15 | 59.24671 | 9.51840 | 2458 ft | 125 kts | 269° |
| 2026-05-04 09:15 | 59.24603 | 9.50197 | 2470 ft | 119 kts | 270° |
| 2026-05-04 09:17 | 59.26834 | 9.38537 | 2441 ft | 127 kts | 314° |
| 2026-05-04 09:18 | 59.27461 | 9.37319 | 2445 ft | 127 kts | 314° |
| 2026-05-04 09:18 | 59.28084 | 9.36101 | 2446 ft | 126 kts | 314° |
| 2026-05-04 09:18 | 59.28706 | 9.34888 | 2446 ft | 126 kts | 314° |
| 2026-05-04 09:18 | 59.29328 | 9.33668 | 2447 ft | 127 kts | 314° |
| 2026-05-04 09:19 | 59.29952 | 9.32451 | 2452 ft | 126 kts | 314° |
| 2026-05-04 09:19 | 59.30575 | 9.31233 | 2453 ft | 127 kts | 313° |
| 2026-05-04 09:19 | 59.31194 | 9.30000 | 2473 ft | 129 kts | 313° |
| 2026-05-04 09:19 | 59.31815 | 9.28729 | 2473 ft | 129 kts | 313° |
| 2026-05-04 09:20 | 59.32436 | 9.27459 | 2474 ft | 129 kts | 313° |
| 2026-05-04 09:20 | 59.33051 | 9.26194 | 2477 ft | 128 kts | 312° |
| 2026-05-04 09:20 | 59.33658 | 9.24938 | 2475 ft | 127 kts | 312° |
| 2026-05-04 09:20 | 59.34265 | 9.23680 | 2478 ft | 127 kts | 312° |
| 2026-05-04 09:21 | 59.34872 | 9.22417 | 2476 ft | 127 kts | 312° |
| 2026-05-04 09:21 | 59.35474 | 9.21158 | 2475 ft | 126 kts | 312° |
| 2026-05-04 09:21 | 59.36246 | 9.20404 | 2486 ft | 129 kts | 349° |
| 2026-05-04 09:21 | 59.37150 | 9.20753 | 2493 ft | 135 kts | 13° |
| 2026-05-04 09:22 | 59.38039 | 9.21379 | 2500 ft | 136 kts | 13° |
| 2026-05-04 09:22 | 59.38940 | 9.22021 | 2492 ft | 135 kts | 14° |
| 2026-05-04 09:22 | 59.39809 | 9.22616 | 2631 ft | 132 kts | 12° |
| 2026-05-04 09:22 | 59.40692 | 9.23236 | 2783 ft | 138 kts | 14° |
| 2026-05-04 09:23 | 59.41583 | 9.23885 | 2904 ft | 137 kts | 15° |
| 2026-05-04 09:23 | 59.42446 | 9.24524 | 3014 ft | 126 kts | 15° |
| 2026-05-04 09:23 | 59.43271 | 9.25102 | 3152 ft | 127 kts | 12° |
| 2026-05-04 09:23 | 59.44092 | 9.25707 | 3280 ft | 128 kts | 15° |
| 2026-05-04 09:25 | 59.50354 | 9.30294 | 3132 ft | 139 kts | 14° |
| 2026-05-04 09:25 | 59.51264 | 9.30957 | 3002 ft | 140 kts | 14° |
| 2026-05-04 09:26 | 59.52204 | 9.31260 | 2866 ft | 136 kts | 346° |
| 2026-05-04 09:26 | 59.53104 | 9.30722 | 2761 ft | 137 kts | 335° |
| 2026-05-04 09:26 | 59.53927 | 9.29777 | 2627 ft | 138 kts | 317° |
| 2026-05-04 09:26 | 59.54699 | 9.28579 | 2498 ft | 143 kts | 316° |
| 2026-05-04 09:27 | 59.55406 | 9.27213 | 2325 ft | 140 kts | 312° |
| 2026-05-04 09:27 | 59.56058 | 9.25828 | 2211 ft | 137 kts | 310° |
| 2026-05-04 09:27 | 59.56662 | 9.24452 | 2045 ft | 129 kts | 301° |
| 2026-05-04 09:27 | 59.56995 | 9.22896 | 1910 ft | 123 kts | 295° |
| 2026-05-04 09:28 | 59.57496 | 9.21507 | 1773 ft | 125 kts | 313° |
| 2026-05-04 09:28 | 59.58104 | 9.20285 | 1594 ft | 124 kts | 319° |
| 2026-05-04 09:28 | 59.58754 | 9.19191 | 1410 ft | 123 kts | 321° |
| 2026-05-04 09:28 | 59.59212 | 9.17844 | 1341 ft | 118 kts | 277° |
| 2026-05-04 09:29 | 59.59080 | 9.16862 | 1262 ft | 114 kts | 228° |
| 2026-05-04 09:29 | 59.58387 | 9.16747 | 1043 ft | 103 kts | 156° |
| 2026-05-04 09:29 | 59.57914 | 9.17652 | 709 ft | 94 kts | 126° |
| 2026-05-04 09:29 | 59.57531 | 9.18657 | 516 ft | 94 kts | 131° |
| 2026-05-04 09:30 | 59.57141 | 9.19689 | 337 ft | 91 kts | 131° |
| 2026-05-04 09:30 | 59.56754 | 9.20711 | 128 ft | 89 kts | 129° |
| 2026-05-04 09:30 | 59.56416 | 9.21580 | 70 ft | 62 kts | 126° |
| 2026-05-04 09:30 | 59.56270 | 9.21965 | 68 ft | 11 kts | 142° |
| 2026-05-04 09:31 | 59.56263 | 9.21995 | 66 ft | 9 kts | 302° |
| 2026-05-04 09:31 | 59.56309 | 9.21856 | 68 ft | 14 kts | 303° |
| 2026-05-04 09:31 | 59.56381 | 9.21790 | 69 ft | 10 kts | 38° |
| 2026-05-04 09:31 | 59.56421 | 9.21854 | 67 ft | 7 kts | 39° |
| 2026-05-04 09:32 | 59.56459 | 9.21896 | 69 ft | 7 kts | 360° |
| 2026-05-04 09:32 | 59.56489 | 9.21838 | 69 ft | 7 kts | 298° |
| 2026-05-04 09:34 | 59.56527 | 9.21744 | 69 ft | 0 kts | 127° |